ADDS METAR Data INFO
IDs: Format: Raw Decoded Include TAF

Data at: 0155 UTC 17 Oct 2017

KFAT 170053Z 30005KT 7SM FU FEW150 FEW200 SCT250 26/04 A3005 RMK AO2 SLP173 T02560039
KFAT 162353Z 31003KT 6SM HZ FU FEW150 SCT200 SCT250 28/03 A3006 RMK AO2 SLP176 T02780033 10289 20206 56016
KFAT 162253Z 33003KT 6SM HZ FU FEW150 FEW200 SCT250 28/02 A3007 RMK AO2 SLP181 T02830022
KFAT 162153Z 11003KT 4SM HZ FU SCT200 28/03 A3008 RMK AO2 SLP185 T02780028
KFAT 162053Z 11003KT 3SM HZ FU OVC200 26/04 A3011 RMK AO2 SLP192 T02560044 58024
KFAT 161953Z 11003KT 4SM HZ FU BKN200 25/04 A3014 RMK AO2 SLP202 T02500044
KFAT 161853Z 12003KT 4SM HZ FU BKN250 23/05 A3016 RMK AO2 SLP210 T02280050
KFAT 161753Z 18004KT 4SM HZ FU BKN250 21/06 A3018 RMK AO2 SLP216 T02060056 10206 20100 50005
KFAT 161653Z 11004KT 4SM HZ FU BKN250 18/04 A3018 RMK AO2 SLP219 T01780044
KFAT 161553Z 11003KT 6SM HZ FU SCT250 14/02 A3018 RMK AO2 SLP217 T01440022 $
KFAT 161453Z 11003KT 6SM HZ FU SCT250 11/03 A3016 RMK AO2 SLP212 T01110033 53008 $
KFAT 161353Z 03003KT 8SM FEW130 11/03 A3015 RMK AO2 SLP208 T01060033 $
KFAT 161253Z 00000KT 7SM CLR 11/04 A3015 RMK AO2 SLP207 T01060044 $
KFAT 161153Z 06003KT 8SM CLR 11/04 A3014 RMK AO2 SLP203 T01060044 10178 20106 58001 $
KFAT 161053Z 00000KT 8SM CLR 12/04 A3014 RMK AO2 SLP204 T01170044 $
KFAT 160953Z 00000KT 8SM CLR 12/05 A3014 RMK AO2 SLP205 T01220050 $
KFAT 160853Z 15003KT 7SM CLR 13/05 A3014 RMK AO2 SLP205 T01330050 53003 $
KFAT 160753Z 00000KT 8SM CLR 14/06 A3014 RMK AO2 SLP204 T01440056 402890083 $
KFAT 160653Z 00000KT 9SM CLR 15/05 A3013 RMK AO2 SLP202 T01500050 $
KFAT 160553Z 00000KT 9SM CLR 17/04 A3013 RMK AO2 SLP202 T01720044 10278 20172 51010 $
KFAT 160453Z 00000KT 8SM CLR 18/04 A3013 RMK AO2 SLP201 T01830044 $
KFAT 160353Z 34003KT 8SM CLR 20/04 A3011 RMK AO2 SLP195 T02000039 $
KFAT 160253Z 31003KT 9SM CLR 22/04 A3010 RMK AO2 SLP192 T02170039 53006 $
KFAT 160153Z 31003KT 9SM CLR 24/03 A3009 RMK AO2 SLP186 HZ FU DSNT ALQDS T02390033 $
KFAT 160053Z 31006KT 8SM FEW200 FEW250 26/02 A3008 RMK AO2 SLP184 HZ FU DSNT ALQDS T02610022 $
KFAT 152353Z 32005KT 8SM FEW200 FEW250 28/01 A3008 RMK AO2 SLP185 HZ FU DSNT ALQDS T02780006 10289 20211 56013 $
KFAT 152253Z 30006KT 7SM FEW200 FEW250 29/01 A3009 RMK AO2 SLP188 HZ FU DSNT ALQDS T02890006 $
KFAT 152153Z 32003KT 6SM HZ FU FEW200 28/01 A3011 RMK AO2 SLP192 T02780011 $
KFAT 152053Z VRB04KT 6SM HZ FU FEW200 27/01 A3012 RMK AO2 SLP198 T02720006 58018 $
KFAT 151953Z 31005KT 4SM HZ FU FEW200 26/03 A3015 RMK AO2 SLP207 T02610033 $
KFAT 151853Z 00000KT 4SM HZ FU FEW200 23/04 A3017 RMK AO2 SLP213 T02330039 $
KFAT 151753Z 00000KT 7SM FEW200 21/01 A3018 RMK AO2 SLP217 T02110011 10211 20083 50004 $
KFAT 151653Z 00000KT 5SM HZ FEW200 17/04 A3019 RMK AO2 SLP219 T01720039 $
KFAT 151553Z 00000KT 6SM HZ FEW200 14/04 A3018 RMK AO2 SLP220 T01390039 $
KFAT 151453Z 00000KT 5SM HZ FEW200 10/04 A3017 RMK AO2 SLP214 T01000044 51014 $